createdAt,value
2023-09-03T00:01:02.643Z,2.05
2023-09-03T00:04:05.097Z,1.80
2023-09-03T00:07:07.253Z,1.55
2023-09-03T00:10:09.452Z,1.50
2023-09-03T00:13:11.453Z,1.50
2023-09-03T00:16:13.544Z,1.23
2023-09-03T00:19:15.640Z,1.37
2023-09-03T00:22:17.696Z,1.55
2023-09-03T00:25:19.680Z,1.70
2023-09-03T00:28:22.174Z,1.52
2023-09-03T00:31:26.593Z,1.73
2023-09-03T00:34:28.649Z,2.00
2023-09-03T00:37:30.657Z,1.95
2023-09-03T00:40:39.180Z,2.08
2023-09-03T00:43:41.441Z,2.80
2023-09-03T00:46:44.266Z,3.10
2023-09-03T00:49:46.990Z,2.93
2023-09-03T00:52:49.294Z,2.90
2023-09-03T00:55:51.686Z,2.80
2023-09-03T00:58:54.439Z,2.65
2023-09-03T01:01:56.708Z,2.63
2023-09-03T01:04:58.776Z,2.47
2023-09-03T01:08:02.268Z,2.63
2023-09-03T01:11:34.889Z,3.17
2023-09-03T01:14:43.712Z,2.63
2023-09-03T01:18:08.505Z,3.10
2023-09-03T01:21:42.084Z,3.00
2023-09-03T01:25:22.705Z,3.20
2023-09-03T01:28:25.944Z,3.28
2023-09-03T01:31:29.878Z,3.20
2023-09-03T01:34:32.793Z,3.25
2023-09-03T01:37:35.859Z,3.70
2023-09-03T01:40:42.027Z,4.18
2023-09-03T01:43:45.420Z,3.58
2023-09-03T01:46:51.486Z,4.40
2023-09-03T01:50:25.685Z,4.70
2023-09-03T01:53:40.143Z,4.60
2023-09-03T01:56:54.919Z,4.70
2023-09-03T01:59:59.026Z,4.70
2023-09-03T02:03:03.553Z,5.22
2023-09-03T02:06:07.486Z,4.78
2023-09-03T02:09:09.844Z,4.43
2023-09-03T02:12:11.895Z,5.00
2023-09-03T02:15:14.030Z,4.88
2023-09-03T02:18:17.327Z,4.45
2023-09-03T02:21:19.395Z,4.78
2023-09-03T02:24:21.440Z,4.00
2023-09-03T02:27:23.508Z,4.63
2023-09-03T02:30:25.646Z,4.38
2023-09-03T02:33:27.702Z,4.90
2023-09-03T02:36:31.075Z,4.47
2023-09-03T02:39:33.090Z,4.27
2023-09-03T02:42:35.115Z,4.50
2023-09-03T02:45:37.152Z,4.72
2023-09-03T02:48:39.397Z,4.40
2023-09-03T02:51:41.881Z,4.20
2023-09-03T02:54:43.896Z,4.50
2023-09-03T02:57:45.964Z,5.32
2023-09-03T03:00:48.177Z,4.70
2023-09-03T03:03:50.297Z,4.13
2023-09-03T03:06:54.219Z,5.40
2023-09-03T03:09:57.389Z,4.87
2023-09-03T03:12:59.719Z,4.80
2023-09-03T03:16:06.457Z,4.38
2023-09-03T03:19:09.360Z,4.68
2023-09-03T03:22:13.677Z,5.28
2023-09-03T03:25:15.862Z,4.30
2023-09-03T03:28:18.196Z,4.45
2023-09-03T03:31:21.235Z,4.55
2023-09-03T03:34:26.793Z,4.30
2023-09-03T03:37:32.356Z,4.53
2023-09-03T03:40:34.515Z,4.30
2023-09-03T03:43:38.061Z,4.40
2023-09-03T03:46:40.174Z,4.40
2023-09-03T03:49:42.221Z,4.40
2023-09-03T03:52:44.298Z,4.53
2023-09-03T03:55:46.334Z,4.10
2023-09-03T03:58:48.519Z,4.90
2023-09-03T04:01:50.615Z,5.03
2023-09-03T04:04:55.814Z,5.32
2023-09-03T04:07:57.811Z,5.28
2023-09-03T04:11:01.480Z,5.30
2023-09-03T04:14:03.614Z,5.10
2023-09-03T04:17:05.629Z,4.78
2023-09-03T04:20:08.378Z,4.75
2023-09-03T04:23:10.945Z,4.70
2023-09-03T04:26:14.198Z,4.57
2023-09-03T04:29:24.030Z,4.03
2023-09-03T04:32:27.071Z,4.85
2023-09-03T04:35:30.246Z,5.07
2023-09-03T04:38:33.830Z,5.65
2023-09-03T04:41:36.556Z,5.40
2023-09-03T04:44:41.028Z,4.72
2023-09-03T04:47:43.215Z,4.25
2023-09-03T04:50:45.723Z,4.20
2023-09-03T04:53:49.616Z,3.97
2023-09-03T04:56:54.049Z,3.13
2023-09-03T04:59:56.295Z,3.00
2023-09-03T05:02:58.772Z,3.13
2023-09-03T05:06:02.189Z,3.63
2023-09-03T05:09:04.422Z,3.22
2023-09-03T05:12:06.881Z,2.63
2023-09-03T05:15:10.340Z,2.90
2023-09-03T05:18:13.211Z,2.50
2023-09-03T05:21:15.444Z,2.78
2023-09-03T05:24:18.046Z,3.08
2023-09-03T05:27:21.117Z,3.13
2023-09-03T05:30:23.895Z,3.33
2023-09-03T05:33:26.159Z,3.08
2023-09-03T05:36:28.587Z,2.90
2023-09-03T05:39:30.793Z,2.72
2023-09-03T05:42:34.227Z,2.13
2023-09-03T05:45:36.358Z,2.17
2023-09-03T05:48:38.462Z,2.05
2023-09-03T05:51:44.427Z,2.08
2023-09-03T05:54:48.032Z,2.13
2023-09-03T05:57:53.815Z,2.10
2023-09-03T06:00:56.104Z,2.17
2023-09-03T06:03:58.681Z,1.30
2023-09-03T06:07:00.806Z,1.88
2023-09-03T06:10:02.982Z,1.50
2023-09-03T06:13:05.113Z,1.47
2023-09-03T06:16:07.112Z,1.73
2023-09-03T06:19:09.371Z,1.63
2023-09-03T06:22:11.535Z,1.65
2023-09-03T06:25:13.561Z,1.63
2023-09-03T06:28:16.433Z,1.53
2023-09-03T06:31:19.593Z,1.25
2023-09-03T06:34:21.856Z,1.40
2023-09-03T06:37:23.986Z,1.70
2023-09-03T06:40:26.535Z,1.40
2023-09-03T06:43:28.638Z,1.30
2023-09-03T06:46:30.752Z,1.70
2023-09-03T06:49:32.804Z,1.88
2023-09-03T06:52:37.921Z,1.65
2023-09-03T06:55:40.032Z,1.33
2023-09-03T06:58:42.196Z,1.30
2023-09-03T07:01:44.209Z,1.20
2023-09-03T07:04:46.207Z,1.20
2023-09-03T07:07:48.270Z,1.17
2023-09-03T07:10:50.324Z,1.15
2023-09-03T07:13:52.328Z,1.33
2023-09-03T07:16:57.119Z,1.23
2023-09-03T07:19:59.255Z,1.45
2023-09-03T07:23:01.422Z,1.23
2023-09-03T07:26:06.732Z,1.55
2023-09-03T07:29:09.968Z,1.40
2023-09-03T07:32:12.505Z,2.00
2023-09-03T07:35:14.694Z,2.40
2023-09-03T07:38:16.683Z,3.00
2023-09-03T07:41:18.754Z,1.45
2023-09-03T08:18:18.735Z,1.40
2023-09-03T08:21:20.840Z,1.40
2023-09-03T08:24:23.520Z,1.10
2023-09-03T08:27:25.564Z,1.50
2023-09-03T08:30:27.625Z,1.60
2023-09-03T08:33:29.615Z,1.50
2023-09-03T08:36:31.745Z,1.40
2023-09-03T08:39:33.717Z,1.33
2023-09-03T08:42:38.758Z,1.15
2023-09-03T08:45:44.943Z,1.27
2023-09-03T08:48:50.676Z,1.30
2023-09-03T08:51:53.854Z,1.30
2023-09-03T08:54:56.361Z,1.67
2023-09-03T08:57:58.864Z,1.13
2023-09-03T09:01:01.003Z,1.17
2023-09-03T09:04:05.272Z,1.20
2023-09-03T09:07:08.009Z,1.10
2023-09-03T09:10:12.110Z,1.20
2023-09-03T09:13:17.911Z,1.08
2023-09-03T09:16:20.251Z,0.90
2023-09-03T09:19:22.430Z,0.82
2023-09-03T09:22:26.606Z,1.00
2023-09-03T09:25:28.886Z,1.10
2023-09-03T09:28:30.943Z,0.95
2023-09-03T09:31:35.086Z,1.10
2023-09-03T09:34:43.875Z,1.10
2023-09-03T09:37:46.243Z,1.17
2023-09-03T09:40:48.271Z,1.67
2023-09-03T09:43:50.618Z,1.10
2023-09-03T09:46:54.764Z,0.90
2023-09-03T09:49:56.975Z,0.95
2023-09-03T09:52:59.162Z,1.00
2023-09-03T09:56:03.969Z,0.87
2023-09-03T09:59:11.313Z,1.00
2023-09-03T10:02:17.594Z,1.00
2023-09-03T10:05:19.619Z,1.10
2023-09-03T10:08:21.811Z,0.93
2023-09-03T10:11:23.908Z,0.90
2023-09-03T10:14:26.664Z,1.15
2023-09-03T10:17:28.983Z,0.88
2023-09-03T10:20:31.378Z,1.13
2023-09-03T10:24:00.050Z,0.98
2023-09-03T10:27:07.042Z,1.10
2023-09-03T10:30:13.171Z,1.10
2023-09-03T10:33:17.175Z,1.10
2023-09-03T10:36:20.732Z,1.05
2023-09-03T10:39:23.490Z,1.83
2023-09-03T10:42:26.497Z,1.40
2023-09-03T10:45:28.599Z,1.00
2023-09-03T10:48:30.619Z,1.13
2023-09-03T10:51:38.762Z,1.20
2023-09-03T10:54:40.910Z,1.02
2023-09-03T10:57:45.025Z,1.50
2023-09-03T11:01:24.143Z,1.25
2023-09-03T11:04:26.347Z,1.10
2023-09-03T11:07:28.472Z,1.15
2023-09-03T11:10:30.508Z,1.40
2023-09-03T11:13:38.908Z,1.40
2023-09-03T11:16:41.849Z,1.33
2023-09-03T11:19:43.849Z,1.40
2023-09-03T11:22:46.819Z,1.20
2023-09-03T11:25:49.056Z,1.20
2023-09-03T11:28:51.140Z,1.20
2023-09-03T11:31:53.964Z,1.00
2023-09-03T11:35:02.374Z,0.90
2023-09-03T11:38:04.972Z,1.10
2023-09-03T11:41:07.416Z,0.93
2023-09-03T11:44:16.958Z,0.80
2023-09-03T11:47:19.016Z,1.20
2023-09-03T11:50:22.072Z,1.00
2023-09-03T11:53:24.805Z,1.00
2023-09-03T11:56:29.453Z,1.10
2023-09-03T11:59:31.758Z,0.90
2023-09-03T12:02:34.651Z,1.00
2023-09-03T12:05:37.241Z,1.10
2023-09-03T12:08:39.501Z,0.75
2023-09-03T12:11:41.633Z,1.05
2023-09-03T12:14:44.627Z,1.00
2023-09-03T12:17:47.001Z,1.27
2023-09-03T12:20:51.258Z,1.30
2023-09-03T12:23:53.299Z,1.00
2023-09-03T12:27:05.364Z,1.23
2023-09-03T12:30:08.227Z,1.23
2023-09-03T12:33:10.805Z,1.30
2023-09-03T12:36:22.386Z,1.10
2023-09-03T12:39:32.623Z,1.08
2023-09-03T12:42:34.832Z,1.20
2023-09-03T12:45:38.031Z,1.40
2023-09-03T12:48:40.421Z,1.23
2023-09-03T12:51:43.057Z,1.20
2023-09-03T12:54:45.361Z,1.10
2023-09-03T12:57:47.497Z,1.20
2023-09-03T13:00:50.413Z,1.17
2023-09-03T13:03:53.608Z,0.98
2023-09-03T13:06:56.218Z,1.10
2023-09-03T13:09:58.483Z,1.25
2023-09-03T13:13:00.751Z,1.05
2023-09-03T13:16:04.666Z,0.90
2023-09-03T13:19:07.170Z,1.10
2023-09-03T13:22:10.163Z,1.00
2023-09-03T13:25:21.400Z,1.10
2023-09-03T13:28:27.231Z,0.93
2023-09-03T13:31:29.411Z,1.17
2023-09-03T13:34:31.846Z,0.90
2023-09-03T13:37:33.875Z,1.40
2023-09-03T13:40:38.804Z,1.00
2023-09-03T13:43:44.661Z,1.10
2023-09-03T13:46:46.753Z,1.30
2023-09-03T13:49:50.956Z,1.17
2023-09-03T13:52:53.003Z,1.50
2023-09-03T13:56:03.335Z,1.08
2023-09-03T13:59:05.367Z,1.23
2023-09-03T14:02:07.510Z,1.10
2023-09-03T14:05:09.638Z,1.20
2023-09-03T14:08:11.732Z,1.23
2023-09-03T14:11:13.687Z,1.35
2023-09-03T14:14:15.706Z,1.55
2023-09-03T14:17:18.098Z,1.70
2023-09-03T14:20:20.226Z,1.40
2023-09-03T14:23:23.342Z,1.35
2023-09-03T14:26:25.733Z,1.20
2023-09-03T14:29:27.869Z,1.73
2023-09-03T14:32:30.028Z,1.33
2023-09-03T14:35:34.284Z,1.58
2023-09-03T14:38:36.345Z,1.58
2023-09-03T14:41:39.758Z,2.00
2023-09-03T14:44:41.836Z,1.92
2023-09-03T14:47:44.200Z,1.90
2023-09-03T14:50:46.262Z,1.98
2023-09-03T14:53:48.430Z,1.95
2023-09-03T14:56:50.431Z,1.92
2023-09-03T14:59:55.481Z,1.80
2023-09-03T15:02:57.902Z,2.00
2023-09-03T15:06:00.021Z,2.20
2023-09-03T15:09:02.158Z,2.47
2023-09-03T15:12:04.678Z,2.60
2023-09-03T15:15:07.214Z,2.30
2023-09-03T15:18:10.420Z,2.60
2023-09-03T15:21:12.960Z,2.42
2023-09-03T15:24:16.360Z,2.70
2023-09-03T15:27:18.407Z,2.80
2023-09-03T15:30:22.661Z,2.60
2023-09-03T15:33:24.846Z,2.90
2023-09-03T15:36:27.605Z,1.70
2023-09-03T15:39:31.811Z,1.80
2023-09-03T15:42:33.850Z,1.80
2023-09-03T15:45:36.109Z,1.70
2023-09-03T15:48:38.142Z,1.83
2023-09-03T15:51:45.520Z,1.73
2023-09-03T15:54:48.131Z,1.80
2023-09-03T15:57:50.365Z,1.60
2023-09-03T16:00:52.656Z,1.60
2023-09-03T16:03:54.759Z,1.60
2023-09-03T16:06:57.052Z,1.55
2023-09-03T16:09:59.402Z,1.77
2023-09-03T16:13:01.712Z,1.75
2023-09-03T16:16:07.237Z,1.60
2023-09-03T16:19:10.436Z,1.87
2023-09-03T16:22:13.236Z,2.15
2023-09-03T16:25:15.278Z,2.10
2023-09-03T16:28:17.527Z,2.15
2023-09-03T16:31:19.766Z,2.00
2023-09-03T16:34:21.873Z,1.57
2023-09-03T16:37:24.111Z,1.83
2023-09-03T16:40:26.279Z,1.45
2023-09-03T16:43:29.267Z,1.60
2023-09-03T16:46:31.425Z,1.73
2023-09-03T16:49:33.510Z,1.30
2023-09-03T16:52:35.531Z,1.70
2023-09-03T16:55:37.789Z,1.88
2023-09-03T16:58:39.817Z,1.80
2023-09-03T17:01:42.422Z,1.80
2023-09-03T17:04:44.572Z,1.40
2023-09-03T17:07:46.737Z,1.50
2023-09-03T17:10:48.710Z,1.90
2023-09-03T17:13:51.399Z,1.75
2023-09-03T17:16:53.624Z,1.52
2023-09-03T17:20:01.362Z,1.60
2023-09-03T17:23:05.249Z,1.65
2023-09-03T17:26:23.516Z,1.90
2023-09-03T17:29:30.326Z,1.48
2023-09-03T17:32:33.763Z,2.10
2023-09-03T17:35:36.672Z,1.47
2023-09-03T17:38:39.329Z,1.77
2023-09-03T17:41:41.718Z,2.20
2023-09-03T17:44:43.883Z,2.00
2023-09-03T17:47:46.302Z,1.77
2023-09-03T17:50:52.259Z,1.97
2023-09-03T17:53:58.789Z,2.15
2023-09-03T17:57:12.507Z,1.83
2023-09-03T18:00:16.067Z,1.90
2023-09-03T18:03:23.721Z,2.05
2023-09-03T18:06:47.832Z,1.90
2023-09-03T18:10:02.755Z,2.10
2023-09-03T18:16:45.447Z,2.55
2023-09-03T18:20:29.279Z,2.58
2023-09-03T18:23:46.627Z,2.53
2023-09-03T18:26:50.487Z,2.20
2023-09-03T18:29:52.703Z,2.38
2023-09-03T18:32:54.924Z,2.75
2023-09-03T18:35:57.063Z,2.40
2023-09-03T18:38:59.572Z,2.30
2023-09-03T18:42:01.826Z,1.75
2023-09-03T18:45:04.097Z,2.20
2023-09-03T18:48:06.407Z,1.92
2023-09-03T18:51:08.472Z,2.05
2023-09-03T18:54:10.799Z,2.20
2023-09-03T18:57:15.893Z,2.22
2023-09-03T19:00:20.074Z,2.30
2023-09-03T19:03:23.189Z,2.42
2023-09-03T19:06:25.872Z,2.10
2023-09-03T19:09:29.426Z,2.30
2023-09-03T19:12:34.410Z,2.28
2023-09-03T19:15:41.323Z,2.13
2023-09-03T19:18:43.887Z,2.47
2023-09-03T19:21:46.427Z,2.25
2023-09-03T19:24:54.763Z,2.00
2023-09-03T19:27:57.160Z,2.17
2023-09-03T19:30:59.451Z,1.83
2023-09-03T19:34:14.653Z,2.50
2023-09-03T19:37:23.929Z,2.33
2023-09-03T19:40:26.282Z,2.53
2023-09-03T19:43:28.753Z,2.10
2023-09-03T19:46:31.204Z,2.20
2023-09-03T19:49:34.739Z,2.33
2023-09-03T19:52:37.333Z,2.25
2023-09-03T19:55:40.208Z,2.50
2023-09-03T19:58:44.656Z,2.08
2023-09-03T20:01:47.463Z,1.90
2023-09-03T20:04:51.571Z,1.80
2023-09-03T20:07:54.102Z,1.92
2023-09-03T20:10:58.245Z,2.23
2023-09-03T20:14:00.945Z,2.33
2023-09-03T20:17:03.490Z,2.22
2023-09-03T20:20:06.091Z,2.10
2023-09-03T20:23:08.109Z,2.13
2023-09-03T20:26:10.591Z,2.00
2023-09-03T20:29:17.427Z,2.20
2023-09-03T20:32:19.424Z,2.30
2023-09-03T20:35:21.661Z,2.47
2023-09-03T20:38:27.127Z,2.45
2023-09-03T20:41:29.275Z,2.30
2023-09-03T20:44:31.449Z,2.10
2023-09-03T20:47:33.544Z,2.38
2023-09-03T20:50:39.293Z,2.10
2023-09-03T20:53:41.354Z,2.15
2023-09-03T20:56:43.960Z,2.30
2023-09-03T20:59:47.452Z,2.55
2023-09-03T21:02:49.782Z,2.40
2023-09-03T21:05:53.264Z,1.95
2023-09-03T21:08:56.126Z,2.67
2023-09-03T21:11:58.177Z,2.37
2023-09-03T21:15:00.173Z,2.60
2023-09-03T21:18:02.183Z,1.98
2023-09-03T21:21:06.000Z,2.08
2023-09-03T21:24:08.643Z,2.40
2023-09-03T21:27:10.640Z,2.00
2023-09-03T21:30:12.931Z,1.70
2023-09-03T21:33:15.207Z,2.03
2023-09-03T21:36:18.933Z,2.08
2023-09-03T21:39:20.959Z,1.92
2023-09-03T21:42:23.097Z,1.80
2023-09-03T21:45:25.308Z,2.17
2023-09-03T21:48:27.506Z,2.20
2023-09-03T21:51:29.734Z,2.30
2023-09-03T21:54:31.813Z,2.38
2023-09-03T21:57:34.450Z,1.80
2023-09-03T22:00:37.647Z,2.50
2023-09-03T22:03:39.703Z,2.45
2023-09-03T22:06:42.489Z,2.30
2023-09-03T22:09:45.718Z,2.20
2023-09-03T22:12:47.696Z,2.10
2023-09-03T22:15:49.705Z,2.05
2023-09-03T22:18:57.155Z,2.25
2023-09-03T22:22:00.623Z,2.28
2023-09-03T22:25:02.895Z,2.20
2023-09-03T22:28:08.215Z,2.40
2023-09-03T22:31:12.362Z,2.80
2023-09-03T22:34:14.386Z,2.35
2023-09-03T22:37:16.564Z,2.60
2023-09-03T22:40:18.649Z,2.80
2023-09-03T22:43:20.629Z,2.60
2023-09-03T22:46:22.658Z,2.38
2023-09-03T22:49:27.404Z,2.78
2023-09-03T22:52:29.618Z,2.50
2023-09-03T22:55:31.869Z,3.17
2023-09-03T22:58:33.845Z,3.03
2023-09-03T23:01:35.904Z,2.42
2023-09-03T23:04:37.948Z,2.47
2023-09-03T23:07:39.870Z,2.45
2023-09-03T23:10:41.938Z,2.20
2023-09-03T23:13:45.026Z,2.40
2023-09-03T23:16:48.912Z,2.85
2023-09-03T23:19:50.941Z,2.40
2023-09-03T23:22:53.436Z,2.72
2023-09-03T23:25:55.820Z,2.40
2023-09-03T23:28:59.326Z,3.07
2023-09-03T23:32:01.406Z,2.90
2023-09-03T23:35:03.993Z,3.08
2023-09-03T23:38:06.234Z,2.50
2023-09-03T23:41:08.574Z,3.13
2023-09-03T23:44:10.633Z,2.80
2023-09-03T23:47:14.855Z,3.05
2023-09-03T23:50:18.397Z,3.58
2023-09-03T23:53:23.254Z,2.92
2023-09-03T23:56:25.776Z,3.30
2023-09-03T23:59:30.626Z,3.20
